createdAt,value
2018-09-28T00:01:53.055Z,8.30
2018-09-28T00:04:21.497Z,8.30
2018-09-28T00:06:49.975Z,8.30
2018-09-28T00:09:18.561Z,8.30
2018-09-28T00:11:47.028Z,8.20
2018-09-28T00:14:15.828Z,8.20
2018-09-28T00:16:44.252Z,8.20
2018-09-28T00:19:12.714Z,8.20
2018-09-28T00:21:41.395Z,8.10
2018-09-28T00:24:09.817Z,8.10
2018-09-28T00:26:38.231Z,8.10
2018-09-28T00:29:06.678Z,8.10
2018-09-28T00:31:35.373Z,8.10
2018-09-28T00:34:03.827Z,8.10
2018-09-28T00:36:32.282Z,8.10
2018-09-28T00:39:00.977Z,8.10
2018-09-28T00:41:29.363Z,8.00
2018-09-28T00:43:57.767Z,8.00
2018-09-28T00:46:26.141Z,8.00
2018-09-28T00:48:54.666Z,7.90
2018-09-28T00:51:23.338Z,7.90
2018-09-28T00:53:51.784Z,7.90
2018-09-28T00:56:20.675Z,7.90
2018-09-28T00:58:49.123Z,7.90
2018-09-28T01:01:17.568Z,7.80
2018-09-28T01:03:47.235Z,7.80
2018-09-28T01:06:15.644Z,7.70
2018-09-28T01:08:44.108Z,7.70
2018-09-28T01:11:12.575Z,7.70
2018-09-28T01:13:41.608Z,7.60
2018-09-28T01:16:09.988Z,7.60
2018-09-28T01:18:38.385Z,7.60
2018-09-28T01:21:06.848Z,7.60
2018-09-28T01:23:35.426Z,7.50
2018-09-28T01:26:04.216Z,7.50
2018-09-28T01:28:32.662Z,7.50
2018-09-28T01:31:01.372Z,7.50
2018-09-28T01:33:29.809Z,7.50
2018-09-28T01:35:58.246Z,7.50
2018-09-28T01:38:26.657Z,7.50
2018-09-28T01:40:55.104Z,7.50
2018-09-28T01:43:23.485Z,7.50
2018-09-28T01:45:51.916Z,7.50
2018-09-28T01:48:20.329Z,7.50
2018-09-28T01:50:49.227Z,7.50
2018-09-28T01:53:17.652Z,7.40
2018-09-28T01:55:46.060Z,7.40
2018-09-28T01:58:15.051Z,7.40
2018-09-28T02:00:43.549Z,7.40
2018-09-28T02:03:12.017Z,7.40
2018-09-28T02:05:40.403Z,7.50
2018-09-28T02:08:08.822Z,7.40
2018-09-28T02:10:37.181Z,7.40
2018-09-28T02:13:05.621Z,7.40
2018-09-28T02:15:39.650Z,7.40
2018-09-28T02:18:08.482Z,7.30
2018-09-28T02:20:37.553Z,7.30
2018-09-28T02:23:06.038Z,7.30
2018-09-28T02:25:34.655Z,7.20
2018-09-28T02:28:03.117Z,7.20
2018-09-28T02:30:31.796Z,7.20
2018-09-28T02:33:00.447Z,7.20
2018-09-28T02:35:29.662Z,7.20
2018-09-28T02:37:58.464Z,7.20
2018-09-28T02:40:26.923Z,7.20
2018-09-28T02:42:55.619Z,7.10
2018-09-28T02:45:24.556Z,7.10
2018-09-28T02:47:53.016Z,7.10
2018-09-28T02:50:21.428Z,7.10
2018-09-28T02:52:50.218Z,7.00
2018-09-28T02:55:18.640Z,7.00
2018-09-28T02:57:47.048Z,7.00
2018-09-28T03:00:15.798Z,7.00
2018-09-28T03:02:44.270Z,7.00
2018-09-28T03:05:12.734Z,7.00
2018-09-28T03:07:41.134Z,7.00
2018-09-28T03:10:09.809Z,7.00
2018-09-28T03:12:38.245Z,7.00
2018-09-28T03:15:06.675Z,7.00
2018-09-28T03:17:35.152Z,7.00
2018-09-28T03:20:03.745Z,7.00
2018-09-28T03:22:32.166Z,7.00
2018-09-28T03:25:00.571Z,7.00
2018-09-28T03:27:29.217Z,7.00
2018-09-28T03:29:57.672Z,6.90
2018-09-28T03:32:26.604Z,6.90
2018-09-28T03:34:55.438Z,7.00
2018-09-28T03:37:23.845Z,7.00
2018-09-28T03:39:52.515Z,7.00
2018-09-28T03:42:20.934Z,7.00
2018-09-28T03:44:49.874Z,6.90
2018-09-28T03:47:18.308Z,6.90
2018-09-28T03:49:46.727Z,6.90
2018-09-28T03:52:15.422Z,6.80
2018-09-28T03:54:43.858Z,6.80
2018-09-28T03:57:12.272Z,6.80
2018-09-28T03:59:40.933Z,6.80
2018-09-28T04:02:09.376Z,6.80
2018-09-28T04:04:38.066Z,6.80
2018-09-28T04:07:06.491Z,6.70
2018-09-28T04:09:34.948Z,6.70
2018-09-28T04:12:03.381Z,6.70
2018-09-28T04:14:31.813Z,6.70
2018-09-28T04:17:00.588Z,6.70
2018-09-28T04:19:29.006Z,6.70
2018-09-28T04:21:59.300Z,6.70
2018-09-28T04:24:28.257Z,6.70
2018-09-28T06:27:18.606Z,8.20
2018-09-28T06:29:47.291Z,8.70
2018-09-28T06:32:16.026Z,8.80
2018-09-28T06:34:44.474Z,9.00
2018-09-28T06:37:13.219Z,9.10
2018-09-28T06:39:41.698Z,9.30
2018-09-28T06:42:10.612Z,9.40
2018-09-28T06:44:39.339Z,9.50
2018-09-28T06:47:07.982Z,9.70
2018-09-28T06:49:36.643Z,9.90
2018-09-28T06:52:05.559Z,10.00
2018-09-28T06:54:34.345Z,10.20
2018-09-28T06:57:03.058Z,10.40
2018-09-28T06:59:32.533Z,10.60
2018-09-28T07:02:01.248Z,10.80
2018-09-28T07:04:30.255Z,11.00
2018-09-28T07:06:58.802Z,11.30
2018-09-28T07:09:27.262Z,11.50
2018-09-28T07:11:56.261Z,11.80
2018-09-28T07:14:24.848Z,12.20
2018-09-28T07:16:54.227Z,12.80
2018-09-28T07:19:22.940Z,14.00
2018-09-28T07:21:51.944Z,15.50
2018-09-28T07:24:20.407Z,17.30
2018-09-28T07:26:48.878Z,19.10
2018-09-28T07:29:18.230Z,20.70
2018-09-28T07:31:46.733Z,21.70
2018-09-28T07:34:15.219Z,22.20
2018-09-28T07:36:44.415Z,23.80
2018-09-28T07:39:13.156Z,24.60
2018-09-28T07:41:42.250Z,24.80
2018-09-28T07:44:10.704Z,26.00
2018-09-28T07:46:39.602Z,26.00
2018-09-28T07:49:08.099Z,25.60
2018-09-28T07:51:36.592Z,25.80
2018-09-28T07:54:05.048Z,26.60
2018-09-28T07:56:34.228Z,27.00
2018-09-28T07:59:02.915Z,27.40
2018-09-28T08:01:31.436Z,27.50
2018-09-28T08:03:59.955Z,27.50
2018-09-28T08:06:28.711Z,27.70
2018-09-28T08:08:57.864Z,28.80
2018-09-28T08:11:26.764Z,28.60
2018-09-28T08:13:55.437Z,28.50
2018-09-28T08:16:24.129Z,28.30
2018-09-28T08:18:52.643Z,27.40
2018-09-28T08:21:21.887Z,27.70
2018-09-28T08:23:50.592Z,27.20
2018-09-28T08:26:19.443Z,26.90
2018-09-28T08:28:48.077Z,27.20
2018-09-28T08:31:16.721Z,27.20
2018-09-28T08:33:45.333Z,27.30
2018-09-28T08:36:13.812Z,27.80
2018-09-28T08:38:42.353Z,28.00
2018-09-28T08:41:11.354Z,27.70
2018-09-28T08:43:39.865Z,27.80
2018-09-28T08:46:08.303Z,27.20
2018-09-28T08:48:37.238Z,27.60
2018-09-28T08:51:06.571Z,27.90
2018-09-28T08:53:35.665Z,27.80
2018-09-28T08:56:04.428Z,27.60
2018-09-28T08:58:32.865Z,27.60
2018-09-28T09:01:01.597Z,27.50
2018-09-28T09:03:30.637Z,27.40
2018-09-28T09:05:59.284Z,27.30
2018-09-28T09:08:28.102Z,27.40
2018-09-28T09:10:56.616Z,27.80
2018-09-28T09:13:25.168Z,28.00
2018-09-28T09:15:54.074Z,27.70
2018-09-28T09:18:23.605Z,28.00
2018-09-28T09:20:51.919Z,28.20
2018-09-28T09:23:20.469Z,27.60
2018-09-28T09:25:49.184Z,28.00
2018-09-28T09:28:17.876Z,27.90
2018-09-28T09:30:46.387Z,28.20
2018-09-28T09:33:14.941Z,28.20
2018-09-28T09:35:43.784Z,28.40
2018-09-28T09:38:13.048Z,28.80
2018-09-28T09:40:42.196Z,29.10
2018-09-28T09:43:10.657Z,29.00
2018-09-28T09:45:39.256Z,29.30
2018-09-28T09:48:08.957Z,28.80
2018-09-28T09:50:38.096Z,28.40
2018-09-28T09:53:06.599Z,28.20
2018-09-28T09:55:35.278Z,28.40
2018-09-28T09:58:03.929Z,28.10
2018-09-28T10:00:37.613Z,28.20
2018-09-28T10:03:11.426Z,28.50
2018-09-28T10:05:40.054Z,29.10
2018-09-28T10:08:08.742Z,29.00
2018-09-28T10:10:37.490Z,28.80
2018-09-28T10:13:06.337Z,28.20
2018-09-28T10:15:34.830Z,26.90
2018-09-28T10:18:03.530Z,25.60
2018-09-28T10:20:32.318Z,25.10
2018-09-28T10:23:01.463Z,24.60
2018-09-28T10:25:29.959Z,24.90
2018-09-28T10:27:59.168Z,23.60
2018-09-28T10:30:27.653Z,23.90
2018-09-28T10:32:56.089Z,23.90
2018-09-28T10:35:25.296Z,24.70
2018-09-28T10:37:53.734Z,25.10
2018-09-28T10:40:22.333Z,25.80
2018-09-28T10:42:51.092Z,25.40
2018-09-28T10:45:20.035Z,24.50
2018-09-28T10:47:48.444Z,23.90
2018-09-28T10:50:17.175Z,24.10
2018-09-28T10:52:45.741Z,24.80
2018-09-28T10:55:14.146Z,25.80
2018-09-28T10:57:42.716Z,26.30
2018-09-28T11:00:11.653Z,26.40
2018-09-28T11:02:40.557Z,26.00
2018-09-28T11:05:09.215Z,26.10
2018-09-28T11:07:37.761Z,26.30
2018-09-28T11:10:06.507Z,25.90
2018-09-28T11:12:35.126Z,25.20
2018-09-28T11:15:03.836Z,24.20
2018-09-28T11:17:32.558Z,24.20
2018-09-28T11:22:52.404Z,24.40
2018-09-28T11:25:21.110Z,24.60
2018-09-28T11:27:49.617Z,24.70
2018-09-28T11:30:49.898Z,24.70
2018-09-28T11:37:01.676Z,24.30
2018-09-28T11:39:45.158Z,24.30
2018-09-28T11:42:22.265Z,24.20
2018-09-28T11:44:51.009Z,24.00
2018-09-28T11:47:19.786Z,24.00
2018-09-28T11:49:48.247Z,23.60
2018-09-28T11:52:16.770Z,23.80
2018-09-28T11:54:45.225Z,23.80
2018-09-28T11:57:13.710Z,23.60
2018-09-28T11:59:42.294Z,23.70
2018-09-28T12:02:11.216Z,23.60
2018-09-28T12:04:39.989Z,23.30
2018-09-28T12:07:08.558Z,23.10
2018-09-28T12:09:36.998Z,23.00
2018-09-28T12:12:05.446Z,22.90
2018-09-28T12:14:34.066Z,23.10
2018-09-28T12:17:03.178Z,23.10
2018-09-28T12:19:32.528Z,23.30
2018-09-28T12:22:00.957Z,23.30
2018-09-28T12:24:29.965Z,23.20
2018-09-28T12:26:58.903Z,23.20
2018-09-28T12:29:27.598Z,23.00
2018-09-28T12:31:56.006Z,23.00
2018-09-28T12:34:24.459Z,23.10
2018-09-28T12:36:53.355Z,22.90
2018-09-28T12:39:21.987Z,23.00
2018-09-28T12:41:50.861Z,23.10
2018-09-28T12:44:19.776Z,23.10
2018-09-28T12:46:48.188Z,23.30
2018-09-28T12:49:17.776Z,23.10
2018-09-28T12:51:46.455Z,23.00
2018-09-28T12:54:15.238Z,23.10
2018-09-28T12:56:44.438Z,23.10
2018-09-28T12:59:13.690Z,22.90
2018-09-28T13:01:42.175Z,22.90
2018-09-28T13:04:17.442Z,22.90
2018-09-28T13:06:47.916Z,22.80
2018-09-28T13:09:16.501Z,22.70
2018-09-28T13:11:45.196Z,22.70
2018-09-28T13:14:13.748Z,22.80
2018-09-28T13:16:42.375Z,22.80
2018-09-28T13:19:10.924Z,22.70
2018-09-28T13:21:39.974Z,22.80
2018-09-28T13:24:08.574Z,22.70
2018-09-28T13:26:37.433Z,22.60
2018-09-28T13:29:06.434Z,22.50
2018-09-28T13:31:35.647Z,22.60
2018-09-28T13:34:04.154Z,22.50
2018-09-28T13:36:32.687Z,22.60
2018-09-28T13:39:01.913Z,22.50
2018-09-28T13:41:30.343Z,22.40
2018-09-28T13:43:58.792Z,22.30
2018-09-28T13:46:27.327Z,22.10
2018-09-28T13:48:55.817Z,22.20
2018-09-28T13:51:24.437Z,22.20
2018-09-28T13:53:52.959Z,21.90
2018-09-28T13:56:21.745Z,21.90
2018-09-28T13:58:50.686Z,21.90
2018-09-28T14:01:19.400Z,21.80
2018-09-28T14:03:48.353Z,21.60
2018-09-28T14:06:17.136Z,21.60
2018-09-28T14:08:45.733Z,21.50
2018-09-28T14:11:14.393Z,21.50
2018-09-28T14:13:43.035Z,21.50
2018-09-28T14:16:11.691Z,21.40
2018-09-28T14:18:40.457Z,21.30
2018-09-28T14:21:09.044Z,21.40
2018-09-28T14:23:37.464Z,21.30
2018-09-28T14:26:05.969Z,21.30
2018-09-28T14:28:34.659Z,21.30
2018-09-28T14:31:03.602Z,21.20
2018-09-28T14:33:32.090Z,21.30
2018-09-28T14:36:01.044Z,21.40
2018-09-28T14:38:29.582Z,21.40
2018-09-28T14:40:58.088Z,21.40
2018-09-28T14:43:26.853Z,21.40
2018-09-28T14:45:55.925Z,21.30
2018-09-28T14:48:24.906Z,21.30
2018-09-28T14:50:53.902Z,21.30
2018-09-28T14:53:22.397Z,21.20
2018-09-28T14:55:52.001Z,21.10
2018-09-28T14:58:20.607Z,21.00
2018-09-28T15:00:49.748Z,21.00
2018-09-28T15:03:18.922Z,20.80
2018-09-28T15:05:47.494Z,20.80
2018-09-28T15:08:16.634Z,20.90
2018-09-28T15:10:45.759Z,20.90
2018-09-28T15:13:14.175Z,20.90
2018-09-28T15:15:43.223Z,20.80
2018-09-28T15:18:11.858Z,20.70
2018-09-28T15:20:40.756Z,20.60
2018-09-28T15:23:09.523Z,20.40
2018-09-28T15:25:38.563Z,20.30
2018-09-28T15:28:07.501Z,20.30
2018-09-28T15:30:36.185Z,20.10
2018-09-28T15:33:05.077Z,20.00
2018-09-28T15:35:33.554Z,20.00
2018-09-28T15:38:02.200Z,20.00
2018-09-28T15:40:30.778Z,20.00
2018-09-28T15:42:59.545Z,20.10
2018-09-28T15:45:28.046Z,20.00
2018-09-28T15:47:57.098Z,19.90
2018-09-28T15:50:25.734Z,19.70
2018-09-28T15:52:54.486Z,19.70
2018-09-28T15:55:23.715Z,19.70
2018-09-28T15:57:52.733Z,19.60
2018-09-28T16:00:21.360Z,19.40
2018-09-28T16:02:49.780Z,19.40
2018-09-28T16:05:18.215Z,19.20
2018-09-28T16:07:47.038Z,19.10
2018-09-28T16:10:15.558Z,18.90
2018-09-28T16:12:44.410Z,18.80
2018-09-28T16:15:13.279Z,18.60
2018-09-28T16:17:42.031Z,18.40
2018-09-28T16:20:10.864Z,18.30
2018-09-28T16:22:39.321Z,18.20
2018-09-28T16:25:08.346Z,18.10
2018-09-28T16:27:36.996Z,18.00
2018-09-28T16:30:05.981Z,17.90
2018-09-28T16:32:35.109Z,17.80
2018-09-28T16:35:03.655Z,17.60
2018-09-28T16:37:32.471Z,17.60
2018-09-28T16:40:00.921Z,17.40
2018-09-28T16:42:29.397Z,17.20
2018-09-28T16:44:58.254Z,17.10
2018-09-28T16:47:27.164Z,17.00
2018-09-28T16:49:55.852Z,16.90
2018-09-28T16:52:24.473Z,16.70
2018-09-28T16:54:53.254Z,16.60
2018-09-28T16:57:21.857Z,16.40
2018-09-28T16:59:50.460Z,16.30
2018-09-28T17:02:19.096Z,16.20
2018-09-28T17:04:47.729Z,16.10
2018-09-28T17:07:16.911Z,16.00
2018-09-28T17:09:45.662Z,15.90
2018-09-28T17:12:14.109Z,15.80
2018-09-28T17:14:42.880Z,15.70
2018-09-28T17:17:11.514Z,15.60
2018-09-28T17:19:39.976Z,15.50
2018-09-28T17:22:08.801Z,15.40
2018-09-28T17:24:37.607Z,15.30
2018-09-28T17:27:06.967Z,15.20
2018-09-28T17:29:35.394Z,15.10
2018-09-28T17:32:04.029Z,15.00
2018-09-28T17:34:32.452Z,15.00
2018-09-28T17:37:01.098Z,14.90
2018-09-28T17:39:30.149Z,14.80
2018-09-28T17:41:58.803Z,14.80
2018-09-28T17:44:27.628Z,14.70
2018-09-28T17:46:56.332Z,14.60
2018-09-28T17:49:25.070Z,14.60
2018-09-28T17:51:53.715Z,14.50
2018-09-28T17:54:22.473Z,14.50
2018-09-28T17:56:51.765Z,14.40
2018-09-28T17:59:20.732Z,14.30
2018-09-28T18:01:49.556Z,14.30
2018-09-28T18:04:18.856Z,14.30
2018-09-28T18:06:47.397Z,14.20
2018-09-28T18:09:15.825Z,14.20
2018-09-28T18:11:44.989Z,14.10
2018-09-28T18:14:14.342Z,14.10
2018-09-28T18:16:43.184Z,14.00
2018-09-28T18:19:11.898Z,13.90
2018-09-28T18:21:40.353Z,13.80
2018-09-28T18:24:08.992Z,13.70
2018-09-28T18:26:37.915Z,13.60
2018-09-28T18:29:06.361Z,13.60
2018-09-28T18:31:34.817Z,13.60
2018-09-28T18:34:03.428Z,13.50
2018-09-28T18:36:32.034Z,13.50
2018-09-28T18:39:00.814Z,13.50
2018-09-28T18:41:29.307Z,13.60
2018-09-28T18:43:58.152Z,13.60
2018-09-28T18:46:26.807Z,13.70
2018-09-28T18:48:55.606Z,13.70
2018-09-28T18:51:24.312Z,13.70
2018-09-28T18:53:53.316Z,13.70
2018-09-28T18:56:22.022Z,13.60
2018-09-28T18:58:50.857Z,13.60
2018-09-28T19:01:19.845Z,13.60
2018-09-28T19:03:48.480Z,13.50
2018-09-28T19:06:17.089Z,13.40
2018-09-28T19:08:45.745Z,13.30
2018-09-28T19:11:19.201Z,13.30
2018-09-28T19:13:47.925Z,13.20
2018-09-28T19:16:16.446Z,13.10
2018-09-28T19:18:45.558Z,13.00
2018-09-28T19:21:14.435Z,12.90
2018-09-28T19:23:43.098Z,12.80
2018-09-28T19:26:11.923Z,12.70
2018-09-28T19:28:40.350Z,12.60
2018-09-28T19:31:09.512Z,12.60
2018-09-28T19:33:38.072Z,12.50
2018-09-28T19:36:06.849Z,12.50
2018-09-28T19:38:35.460Z,12.50
2018-09-28T19:41:04.223Z,12.40
2018-09-28T19:43:32.925Z,12.40
2018-09-28T19:46:02.327Z,12.40
2018-09-28T19:48:30.775Z,12.40
2018-09-28T19:50:59.675Z,12.30
2018-09-28T19:53:29.114Z,12.30
2018-09-28T19:55:58.484Z,12.30
2018-09-28T19:58:27.612Z,12.30
2018-09-28T20:00:56.105Z,12.20
2018-09-28T20:03:25.173Z,12.30
2018-09-28T20:05:53.866Z,12.30
2018-09-28T20:08:22.752Z,12.30
2018-09-28T20:10:51.581Z,12.30
2018-09-28T20:13:20.044Z,12.30
2018-09-28T20:15:48.844Z,12.30
2018-09-28T20:18:17.527Z,12.20
2018-09-28T20:20:46.242Z,12.20
2018-09-28T20:23:15.353Z,12.10
2018-09-28T20:25:44.338Z,12.10
2018-09-28T20:28:13.023Z,12.00
2018-09-28T20:30:41.692Z,12.00
2018-09-28T20:33:10.568Z,11.90
2018-09-28T20:35:39.028Z,11.90
2018-09-28T20:38:07.897Z,11.80
2018-09-28T20:40:36.347Z,11.80
2018-09-28T20:43:05.388Z,11.80
2018-09-28T20:45:34.283Z,11.80
2018-09-28T20:48:02.924Z,11.70
2018-09-28T20:50:31.508Z,11.70
2018-09-28T20:52:59.942Z,11.70
2018-09-28T20:55:28.414Z,11.80
2018-09-28T20:57:57.092Z,11.80
2018-09-28T21:00:26.432Z,11.80
2018-09-28T21:02:54.899Z,11.80
2018-09-28T21:05:23.504Z,11.70
2018-09-28T21:07:51.935Z,11.80
2018-09-28T21:10:20.766Z,11.70
2018-09-28T21:12:49.887Z,11.70
2018-09-28T21:15:18.434Z,11.70
2018-09-28T21:17:47.164Z,11.60
2018-09-28T21:20:15.640Z,11.60
2018-09-28T21:22:44.336Z,11.60
2018-09-28T21:25:13.207Z,11.50
2018-09-28T21:27:41.875Z,11.50
2018-09-28T21:30:10.294Z,11.50
2018-09-28T21:32:38.791Z,11.40
2018-09-28T21:35:07.544Z,11.40
2018-09-28T21:37:37.529Z,11.50
2018-09-28T21:40:06.061Z,11.40
2018-09-28T21:42:34.511Z,11.40
2018-09-28T21:45:03.109Z,11.40
2018-09-28T21:47:31.769Z,11.40
2018-09-28T21:50:00.947Z,11.40
2018-09-28T21:52:29.573Z,11.40
2018-09-28T21:54:58.071Z,11.40
2018-09-28T21:57:26.571Z,11.40
2018-09-28T21:59:55.656Z,11.30
2018-09-28T22:02:24.221Z,11.30
2018-09-28T22:04:53.310Z,11.20
2018-09-28T22:07:21.765Z,11.20
2018-09-28T22:09:50.334Z,11.10
2018-09-28T22:12:18.754Z,11.10
2018-09-28T22:14:47.914Z,11.00
2018-09-28T22:17:16.439Z,11.00
2018-09-28T22:19:45.078Z,10.90
2018-09-28T22:22:14.031Z,10.90
2018-09-28T22:24:42.871Z,10.80
2018-09-28T22:27:11.578Z,10.80
2018-09-28T22:29:40.504Z,10.80
2018-09-28T22:32:09.589Z,10.80
2018-09-28T22:34:38.286Z,10.70
2018-09-28T22:37:07.123Z,10.70
2018-09-28T22:39:36.144Z,10.70
2018-09-28T22:42:05.013Z,10.60
2018-09-28T22:44:33.550Z,10.70
2018-09-28T22:47:02.227Z,10.60
2018-09-28T22:49:30.695Z,10.60
2018-09-28T22:51:59.453Z,10.60
2018-09-28T22:54:28.279Z,10.60
2018-09-28T22:56:56.720Z,10.50
2018-09-28T22:59:25.247Z,10.50
2018-09-28T23:01:54.013Z,10.50
2018-09-28T23:04:22.453Z,10.50
2018-09-28T23:06:50.895Z,10.50
2018-09-28T23:09:19.655Z,10.50
2018-09-28T23:11:48.104Z,10.60
2018-09-28T23:14:17.031Z,10.60
2018-09-28T23:16:45.540Z,10.60
2018-09-28T23:19:14.023Z,10.60
2018-09-28T23:21:42.500Z,10.60
2018-09-28T23:24:10.892Z,10.70
2018-09-28T23:26:39.918Z,10.70
2018-09-28T23:29:08.759Z,10.70
2018-09-28T23:31:37.223Z,10.80
2018-09-28T23:34:05.677Z,10.80
2018-09-28T23:36:34.354Z,10.80
2018-09-28T23:39:02.823Z,10.80
2018-09-28T23:41:32.169Z,10.70
2018-09-28T23:44:00.852Z,10.80
2018-09-28T23:46:30.118Z,10.80
2018-09-28T23:48:58.724Z,10.70
2018-09-28T23:51:27.727Z,10.80
2018-09-28T23:53:56.618Z,10.80
2018-09-28T23:56:25.045Z,10.70
2018-09-28T23:58:53.737Z,10.70
